createdAt,value
2017-08-25T00:00:13.943Z,19.92
2017-08-25T00:01:12.168Z,19.88
2017-08-25T00:02:11.860Z,19.96
2017-08-25T00:03:12.503Z,19.96
2017-08-25T00:04:12.176Z,20.02
2017-08-25T00:05:14.300Z,19.91
2017-08-25T00:06:11.869Z,19.95
2017-08-25T00:07:12.183Z,20
2017-08-25T00:08:12.186Z,20
2017-08-25T00:09:12.184Z,20.02
2017-08-25T00:10:13.130Z,20.1
2017-08-25T00:11:12.199Z,20.1
2017-08-25T00:12:12.192Z,20.11
2017-08-25T00:13:12.505Z,20.06
2017-08-25T00:14:12.506Z,20.07
2017-08-25T00:15:13.206Z,20.03
2017-08-25T00:16:12.517Z,19.94
2017-08-25T00:17:11.901Z,19.99
2017-08-25T00:18:12.516Z,19.99
2017-08-25T00:19:11.897Z,19.89
2017-08-25T00:20:14.083Z,20
2017-08-25T00:21:12.522Z,19.85
2017-08-25T00:22:12.524Z,19.81
2017-08-25T00:23:12.529Z,19.82
2017-08-25T00:24:12.535Z,19.82
2017-08-25T00:25:13.527Z,19.81
2017-08-25T00:26:12.225Z,19.81
2017-08-25T00:27:12.236Z,19.86
2017-08-25T00:28:11.925Z,19.77
2017-08-25T00:29:12.233Z,19.89
2017-08-25T00:30:13.628Z,19.92
2017-08-25T00:31:12.548Z,19.99
2017-08-25T00:32:12.243Z,19.94
2017-08-25T00:33:12.246Z,19.99
2017-08-25T00:34:12.559Z,19.95
2017-08-25T00:35:13.682Z,19.94
2017-08-25T00:36:12.556Z,19.95
2017-08-25T00:37:12.249Z,19.96
2017-08-25T00:38:11.943Z,19.96
2017-08-25T00:39:12.260Z,19.92
2017-08-25T00:40:13.601Z,20.02
2017-08-25T00:41:12.579Z,19.96
2017-08-25T00:42:11.954Z,19.96
2017-08-25T00:43:12.576Z,19.89
2017-08-25T00:44:11.957Z,19.81
2017-08-25T00:45:15.347Z,19.85
2017-08-25T00:46:12.579Z,19.89
2017-08-25T00:47:12.582Z,19.82
2017-08-25T00:48:12.288Z,19.81
2017-08-25T00:49:12.286Z,19.88
2017-08-25T00:50:14.355Z,19.84
2017-08-25T00:51:12.601Z,19.81
2017-08-25T00:52:12.594Z,19.82
2017-08-25T00:53:12.290Z,19.77
2017-08-25T00:54:12.602Z,19.79
2017-08-25T00:55:13.987Z,19.69
2017-08-25T00:56:12.612Z,19.84
2017-08-25T00:57:12.307Z,19.73
2017-08-25T00:58:12.629Z,19.79
2017-08-25T00:59:12.616Z,19.81
2017-08-25T01:00:15.306Z,19.89
2017-08-25T01:01:12.309Z,19.77
2017-08-25T01:02:12.317Z,19.79
2017-08-25T01:03:12.637Z,19.88
2017-08-25T01:04:12.631Z,19.82
2017-08-25T01:05:14.141Z,19.86
2017-08-25T01:06:12.322Z,19.84
2017-08-25T01:07:12.637Z,19.91
2017-08-25T01:08:12.640Z,19.79
2017-08-25T01:09:12.643Z,19.82
2017-08-25T01:10:13.516Z,19.86
2017-08-25T01:11:12.334Z,19.99
2017-08-25T01:12:12.662Z,19.86
2017-08-25T01:13:12.663Z,19.96
2017-08-25T01:14:12.336Z,19.86
2017-08-25T01:15:13.912Z,19.82
2017-08-25T01:16:12.660Z,19.89
2017-08-25T01:17:12.351Z,19.91
2017-08-25T01:18:12.717Z,19.86
2017-08-25T01:19:12.661Z,19.86
2017-08-25T01:20:13.686Z,19.82
2017-08-25T01:21:12.362Z,19.84
2017-08-25T01:22:12.678Z,19.84
2017-08-25T01:23:12.368Z,19.81
2017-08-25T01:24:12.680Z,19.77
2017-08-25T01:25:14.076Z,19.84
2017-08-25T01:26:12.698Z,19.81
2017-08-25T01:27:12.677Z,19.85
2017-08-25T01:28:12.375Z,19.85
2017-08-25T01:29:12.377Z,19.84
2017-08-25T01:30:13.949Z,19.76
2017-08-25T01:31:12.710Z,19.64
2017-08-25T01:32:12.387Z,19.73
2017-08-25T01:33:12.392Z,19.59
2017-08-25T01:34:12.702Z,19.69
2017-08-25T01:35:14.232Z,19.74
2017-08-25T01:36:12.728Z,19.69
2017-08-25T01:37:12.711Z,19.71
2017-08-25T01:38:12.708Z,19.81
2017-08-25T01:39:12.407Z,19.79
2017-08-25T01:40:13.955Z,19.74
2017-08-25T01:41:12.714Z,19.74
2017-08-25T01:42:12.715Z,19.81
2017-08-25T01:43:12.099Z,19.84
2017-08-25T01:44:12.733Z,19.77
2017-08-25T01:45:14.240Z,19.77
2017-08-25T01:46:15.360Z,19.92
2017-08-25T01:47:12.733Z,19.92
2017-08-25T01:48:12.426Z,19.95
2017-08-25T01:49:12.734Z,19.96
2017-08-25T01:50:13.680Z,20.02
2017-08-25T01:51:12.117Z,19.92
2017-08-25T01:52:12.739Z,19.91
2017-08-25T01:53:12.432Z,19.85
2017-08-25T01:54:12.435Z,19.84
2017-08-25T01:55:13.587Z,19.82
2017-08-25T01:56:12.744Z,19.86
2017-08-25T01:57:12.439Z,19.85
2017-08-25T01:58:12.754Z,19.74
2017-08-25T01:59:12.443Z,19.85
2017-08-25T02:00:13.987Z,19.81
2017-08-25T02:01:12.453Z,19.88
2017-08-25T02:02:12.767Z,19.85
2017-08-25T02:03:12.453Z,19.84
2017-08-25T02:04:12.459Z,19.84
2017-08-25T02:05:13.521Z,19.82
2017-08-25T02:06:12.769Z,19.84
2017-08-25T02:07:12.474Z,19.86
2017-08-25T02:08:12.486Z,19.85
2017-08-25T02:09:12.781Z,19.84
2017-08-25T02:10:13.964Z,19.84
2017-08-25T02:11:12.477Z,19.76
2017-08-25T02:12:12.477Z,19.79
2017-08-25T02:13:12.785Z,19.67
2017-08-25T02:14:12.799Z,19.79
2017-08-25T02:15:14.350Z,19.81
2017-08-25T02:16:15.194Z,19.76
2017-08-25T02:17:12.488Z,19.79
2017-08-25T02:18:12.188Z,19.88
2017-08-25T02:19:12.804Z,19.79
2017-08-25T02:20:14.211Z,19.81
2017-08-25T02:21:12.808Z,19.91
2017-08-25T02:22:12.500Z,19.85
2017-08-25T02:23:12.818Z,19.77
2017-08-25T02:24:12.523Z,19.74
2017-08-25T02:25:14.397Z,19.79
2017-08-25T02:26:12.520Z,19.69
2017-08-25T02:27:12.821Z,19.67
2017-08-25T02:28:12.826Z,19.55
2017-08-25T02:29:12.517Z,19.44
2017-08-25T02:30:14.411Z,19.49
2017-08-25T02:31:12.829Z,19.48
2017-08-25T02:32:12.838Z,19.47
2017-08-25T02:33:12.833Z,19.39
2017-08-25T02:34:12.224Z,19.4
2017-08-25T02:35:14.011Z,19.34
2017-08-25T02:36:12.538Z,19.31
2017-08-25T02:37:12.537Z,19.31
2017-08-25T02:38:12.847Z,19.39
2017-08-25T02:39:12.845Z,19.34
2017-08-25T02:40:14.383Z,19.3
2017-08-25T02:41:12.849Z,19.29
2017-08-25T02:42:12.548Z,19.37
2017-08-25T02:43:12.546Z,19.27
2017-08-25T02:44:12.560Z,19.39
2017-08-25T02:45:13.889Z,19.29
2017-08-25T02:46:12.865Z,19.31
2017-08-25T02:47:12.864Z,19.39
2017-08-25T02:48:12.868Z,19.52
2017-08-25T02:49:12.869Z,19.47
2017-08-25T02:50:14.075Z,19.55
2017-08-25T02:51:12.574Z,19.64
2017-08-25T02:52:12.874Z,19.69
2017-08-25T02:53:12.568Z,19.63
2017-08-25T02:54:12.584Z,19.63
2017-08-25T02:55:13.977Z,19.66
2017-08-25T02:56:12.881Z,19.67
2017-08-25T02:57:12.887Z,19.7
2017-08-25T02:58:12.582Z,19.63
2017-08-25T02:59:12.893Z,19.62
2017-08-25T03:00:14.873Z,19.64
2017-08-25T03:01:12.897Z,19.64
2017-08-25T03:02:12.895Z,19.67
2017-08-25T03:03:12.588Z,19.58
2017-08-25T03:04:12.898Z,19.67
2017-08-25T03:05:13.869Z,19.64
2017-08-25T03:06:12.919Z,19.62
2017-08-25T03:07:12.596Z,19.67
2017-08-25T03:08:12.904Z,19.69
2017-08-25T03:09:12.601Z,19.7
2017-08-25T03:10:14.298Z,19.7
2017-08-25T03:11:12.604Z,19.77
2017-08-25T03:12:12.609Z,19.82
2017-08-25T03:13:12.919Z,19.81
2017-08-25T03:14:12.934Z,19.76
2017-08-25T03:15:14.509Z,19.71
2017-08-25T03:16:12.928Z,19.79
2017-08-25T03:17:13.422Z,19.84
2017-08-25T03:18:12.623Z,19.7
2017-08-25T03:19:12.937Z,19.69
2017-08-25T03:20:14.497Z,19.54
2017-08-25T03:21:12.935Z,19.48
2017-08-25T03:22:12.633Z,19.39
2017-08-25T03:23:12.320Z,19.37
2017-08-25T03:24:12.645Z,19.36
2017-08-25T03:25:13.892Z,19.19
2017-08-25T03:26:12.644Z,19.26
2017-08-25T03:27:12.951Z,19.12
2017-08-25T03:28:12.970Z,19.19
2017-08-25T03:29:12.644Z,19.12
2017-08-25T03:30:13.856Z,19.19
2017-08-25T03:31:12.987Z,19.26
2017-08-25T03:32:12.955Z,19.26
2017-08-25T03:33:12.958Z,19.33
2017-08-25T03:34:12.670Z,19.31
2017-08-25T03:35:14.000Z,19.26
2017-08-25T03:36:12.651Z,19.31
2017-08-25T03:37:12.658Z,19.37
2017-08-25T03:38:12.972Z,19.22
2017-08-25T03:39:12.665Z,19.3
2017-08-25T03:40:13.828Z,19.22
2017-08-25T03:41:12.973Z,19.24
2017-08-25T03:42:12.360Z,19.19
2017-08-25T03:43:12.976Z,19.09
2017-08-25T03:44:12.979Z,19.08
2017-08-25T03:45:14.323Z,18.98
2017-08-25T03:46:12.673Z,18.96
2017-08-25T03:47:18.585Z,18.81
2017-08-25T03:48:12.983Z,18.71
2017-08-25T03:49:12.993Z,18.71
2017-08-25T03:50:14.389Z,18.7
2017-08-25T03:51:12.688Z,18.66
2017-08-25T03:52:12.995Z,18.65
2017-08-25T03:53:12.994Z,18.58
2017-08-25T03:54:12.995Z,18.52
2017-08-25T03:55:14.623Z,18.63
2017-08-25T03:56:13.000Z,18.49
2017-08-25T03:57:13.008Z,18.55
2017-08-25T03:58:13.011Z,18.49
2017-08-25T03:59:13.003Z,18.45
2017-08-25T04:00:14.001Z,18.4
2017-08-25T04:01:12.703Z,18.47
2017-08-25T04:02:13.004Z,18.44
2017-08-25T04:03:12.755Z,18.47
2017-08-25T04:04:12.701Z,18.35
2017-08-25T04:05:14.575Z,18.41
2017-08-25T04:06:13.019Z,18.38
2017-08-25T04:07:12.707Z,18.41
2017-08-25T04:08:13.015Z,18.38
2017-08-25T04:09:13.018Z,18.33
2017-08-25T04:10:14.730Z,18.35
2017-08-25T04:11:12.712Z,18.29
2017-08-25T04:12:13.029Z,18.37
2017-08-25T04:13:12.725Z,18.45
2017-08-25T04:14:13.040Z,18.34
2017-08-25T04:15:14.009Z,18.31
2017-08-25T04:16:12.424Z,18.41
2017-08-25T04:17:12.734Z,18.44
2017-08-25T04:18:14.143Z,18.49
2017-08-25T04:19:12.724Z,18.59
2017-08-25T04:20:13.821Z,18.63
2017-08-25T04:21:12.727Z,18.55
2017-08-25T04:22:13.032Z,18.53
2017-08-25T04:23:12.728Z,18.68
2017-08-25T04:24:12.729Z,18.73
2017-08-25T04:25:14.684Z,18.7
2017-08-25T04:26:12.818Z,18.58
2017-08-25T04:27:13.045Z,18.5
2017-08-25T04:28:12.731Z,18.53
2017-08-25T04:29:13.055Z,18.45
2017-08-25T04:30:14.172Z,18.49
2017-08-25T04:31:12.741Z,18.34
2017-08-25T04:32:13.059Z,18.31
2017-08-25T04:33:13.053Z,18.29
2017-08-25T04:34:13.053Z,18.2
2017-08-25T04:35:15.031Z,18.33
2017-08-25T04:36:12.745Z,18.33
2017-08-25T04:37:12.752Z,18.31
2017-08-25T04:38:13.053Z,18.31
2017-08-25T04:39:12.748Z,18.29
2017-08-25T04:40:14.191Z,18.28
2017-08-25T04:41:13.065Z,18.31
2017-08-25T04:42:12.748Z,18.37
2017-08-25T04:43:13.058Z,18.29
2017-08-25T04:44:13.061Z,18.28
2017-08-25T04:45:14.238Z,18.37
2017-08-25T04:46:13.061Z,18.31
2017-08-25T04:47:12.769Z,18.34
2017-08-25T04:48:16.013Z,18.41
2017-08-25T04:49:12.457Z,18.49
2017-08-25T04:50:13.527Z,18.45
2017-08-25T04:51:13.069Z,18.56
2017-08-25T04:52:13.078Z,18.56
2017-08-25T04:53:12.774Z,18.6
2017-08-25T04:54:12.774Z,18.62
2017-08-25T04:55:14.582Z,18.74
2017-08-25T04:56:12.461Z,18.88
2017-08-25T04:57:13.085Z,18.9
2017-08-25T04:58:12.773Z,19
2017-08-25T04:59:13.093Z,19.02
2017-08-25T05:00:13.776Z,19.12
2017-08-25T05:01:12.779Z,19.09
2017-08-25T05:02:13.100Z,19.15
2017-08-25T05:03:13.088Z,19.18
2017-08-25T05:04:13.093Z,19.26
2017-08-25T05:05:14.332Z,19.21
2017-08-25T05:06:13.101Z,19.24
2017-08-25T05:07:13.101Z,19.36
2017-08-25T05:08:13.106Z,19.4
2017-08-25T05:09:12.806Z,19.49
2017-08-25T05:10:14.367Z,19.62
2017-08-25T05:11:13.110Z,19.82
2017-08-25T05:12:13.108Z,19.96
2017-08-25T05:13:12.807Z,20.06
2017-08-25T05:14:13.110Z,20.11
2017-08-25T05:15:14.893Z,20.18
2017-08-25T05:16:13.112Z,20.18
2017-08-25T05:17:13.117Z,20.03
2017-08-25T05:18:13.125Z,20
2017-08-25T05:19:13.120Z,19.95
2017-08-25T05:20:14.196Z,19.85
2017-08-25T05:21:13.126Z,19.85
2017-08-25T05:22:13.128Z,19.71
2017-08-25T05:23:12.826Z,19.71
2017-08-25T05:24:13.136Z,19.62
2017-08-25T05:25:14.380Z,19.71
2017-08-25T05:26:12.834Z,19.7
2017-08-25T05:27:12.829Z,19.73
2017-08-25T05:28:12.831Z,19.7
2017-08-25T05:29:13.162Z,19.71
2017-08-25T05:30:13.608Z,19.79
2017-08-25T05:31:12.840Z,19.84
2017-08-25T05:32:12.840Z,19.84
2017-08-25T05:33:13.154Z,19.91
2017-08-25T05:34:12.846Z,19.85
2017-08-25T05:35:14.245Z,19.88
2017-08-25T05:36:12.850Z,19.99
2017-08-25T05:37:12.851Z,19.89
2017-08-25T05:38:13.173Z,19.96
2017-08-25T05:39:12.549Z,19.92
2017-08-25T05:40:14.400Z,19.86
2017-08-25T05:41:12.859Z,19.85
2017-08-25T05:42:12.862Z,19.71
2017-08-25T05:43:13.181Z,19.81
2017-08-25T05:44:12.880Z,19.81
2017-08-25T05:45:15.003Z,19.81
2017-08-25T05:46:13.191Z,19.94
2017-08-25T05:47:12.573Z,20.16
2017-08-25T05:48:13.185Z,20.31
2017-08-25T05:49:13.990Z,20.28
2017-08-25T05:50:14.676Z,20.36
2017-08-25T05:51:13.197Z,20.29
2017-08-25T05:52:13.206Z,20.36
2017-08-25T05:53:12.893Z,20.32
2017-08-25T05:54:12.896Z,20.39
2017-08-25T05:55:14.654Z,20.43
2017-08-25T05:56:13.205Z,20.34
2017-08-25T05:57:12.900Z,20.32
2017-08-25T05:58:12.901Z,20.39
2017-08-25T05:59:12.600Z,20.52
2017-08-25T06:00:14.668Z,20.6
2017-08-25T06:01:13.221Z,20.7
2017-08-25T06:02:13.239Z,20.72
2017-08-25T06:03:12.920Z,20.67
2017-08-25T06:04:12.979Z,20.67
2017-08-25T06:05:14.261Z,20.62
2017-08-25T06:06:13.239Z,20.66
2017-08-25T06:07:12.622Z,20.66
2017-08-25T06:08:13.255Z,20.6
2017-08-25T06:09:13.249Z,20.63
2017-08-25T06:10:14.057Z,20.65
2017-08-25T06:11:12.946Z,20.51
2017-08-25T06:12:13.258Z,20.5
2017-08-25T06:13:13.257Z,20.56
2017-08-25T06:14:13.264Z,20.58
2017-08-25T06:15:14.551Z,20.56
2017-08-25T06:16:13.267Z,20.55
2017-08-25T06:17:13.270Z,20.69
2017-08-25T06:18:13.284Z,20.84
2017-08-25T06:19:15.020Z,20.88
2017-08-25T06:20:13.823Z,20.92
2017-08-25T06:21:13.280Z,21.11
2017-08-25T06:22:13.283Z,21.21
2017-08-25T06:23:12.978Z,21.46
2017-08-25T06:24:13.287Z,21.66
2017-08-25T06:25:13.486Z,21.85
2017-08-25T06:26:13.297Z,22.07
2017-08-25T06:27:13.301Z,22.32
2017-08-25T06:28:13.308Z,22.65
2017-08-25T06:29:13.307Z,23
2017-08-25T06:30:14.480Z,23.18
2017-08-25T06:31:13.008Z,23.44
2017-08-25T06:32:13.321Z,23.65
2017-08-25T06:33:13.325Z,23.74
2017-08-25T06:34:14.433Z,23.93
2017-08-25T06:35:14.567Z,24.1
2017-08-25T06:36:13.342Z,24.29
2017-08-25T06:37:13.350Z,24.5
2017-08-25T06:38:13.040Z,24.63
2017-08-25T06:39:13.352Z,24.68
2017-08-25T06:40:14.769Z,24.89
2017-08-25T06:41:13.369Z,25.04
2017-08-25T06:42:13.388Z,24.96
2017-08-25T06:43:12.766Z,25.07
2017-08-25T06:44:13.381Z,25.17
2017-08-25T06:45:14.679Z,25.26
2017-08-25T06:46:13.400Z,25.35
2017-08-25T06:47:13.402Z,25.4
2017-08-25T06:48:13.407Z,25.63
2017-08-25T06:49:13.417Z,25.73
2017-08-25T06:50:14.503Z,25.81
2017-08-25T06:51:12.803Z,25.77
2017-08-25T06:52:13.122Z,25.84
2017-08-25T06:53:13.128Z,25.84
2017-08-25T06:54:13.129Z,25.95
2017-08-25T06:55:15.183Z,26.07
2017-08-25T06:56:12.849Z,26.19
2017-08-25T06:57:13.462Z,26.41
2017-08-25T06:58:13.464Z,26.59
2017-08-25T06:59:13.477Z,26.65
2017-08-25T07:00:15.413Z,26.74
2017-08-25T07:01:13.497Z,26.71
2017-08-25T07:02:13.495Z,26.56
2017-08-25T07:03:13.494Z,26.47
2017-08-25T07:04:13.520Z,26.22
2017-08-25T07:05:15.129Z,25.8
2017-08-25T07:06:13.243Z,25.53
2017-08-25T07:07:13.520Z,25.28
2017-08-25T07:08:13.225Z,24.93
2017-08-25T07:09:13.222Z,24.6
2017-08-25T07:10:17.583Z,24.33
2017-08-25T07:11:13.546Z,24.13
2017-08-25T07:12:12.943Z,23.93
2017-08-25T07:13:13.247Z,23.78
2017-08-25T07:14:12.952Z,23.73
2017-08-25T07:15:15.534Z,23.59
2017-08-25T07:16:13.263Z,23.63
2017-08-25T07:17:13.578Z,23.95
2017-08-25T07:18:13.584Z,24.17
2017-08-25T07:19:13.278Z,24.5
2017-08-25T07:20:16.309Z,24.73
2017-08-25T07:21:13.601Z,25.04
2017-08-25T07:22:13.300Z,25.22
2017-08-25T07:23:13.606Z,25.41
2017-08-25T07:24:13.307Z,25.6
2017-08-25T07:25:15.313Z,25.72
2017-08-25T07:26:13.328Z,25.88
2017-08-25T07:27:13.322Z,25.73
2017-08-25T07:28:13.640Z,25.58
2017-08-25T07:29:13.646Z,25.38
2017-08-25T07:30:14.503Z,25.22
2017-08-25T07:31:13.671Z,25.04
2017-08-25T07:32:13.350Z,24.93
2017-08-25T07:33:13.360Z,24.78
2017-08-25T07:34:13.674Z,24.76
2017-08-25T07:35:15.193Z,24.7
2017-08-25T07:36:13.682Z,24.89
2017-08-25T07:37:13.377Z,25.07
2017-08-25T07:38:13.701Z,25.46
2017-08-25T07:39:13.699Z,25.85
2017-08-25T07:40:15.009Z,26.47
2017-08-25T07:41:13.397Z,26.83
2017-08-25T07:42:13.714Z,27.21
2017-08-25T07:43:13.419Z,27.58
2017-08-25T07:44:13.416Z,27.65
2017-08-25T07:45:15.357Z,27.48
2017-08-25T07:46:13.756Z,27.18
2017-08-25T07:47:13.755Z,26.83
2017-08-25T07:48:13.749Z,26.53
2017-08-25T07:49:13.448Z,26.51
2017-08-25T07:50:15.413Z,26.68
2017-08-25T07:51:13.458Z,26.95
2017-08-25T07:52:13.464Z,27.1
2017-08-25T07:53:13.788Z,27.44
2017-08-25T07:54:13.791Z,27.7
2017-08-25T07:55:14.764Z,28.02
2017-08-25T07:56:13.488Z,28.02
2017-08-25T07:57:13.494Z,28.19
2017-08-25T07:58:13.823Z,28.49
2017-08-25T07:59:13.509Z,28.67
2017-08-25T08:00:14.930Z,28.89
2017-08-25T08:01:13.831Z,28.98
2017-08-25T08:02:13.843Z,29.04
2017-08-25T08:03:13.539Z,29.16
2017-08-25T08:04:13.852Z,29.39
2017-08-25T08:05:15.418Z,29.63
2017-08-25T08:06:13.569Z,29.86
2017-08-25T08:07:13.564Z,30
2017-08-25T08:08:13.890Z,30.24
2017-08-25T08:09:13.897Z,30.44
2017-08-25T08:10:14.640Z,30.73
2017-08-25T08:11:13.905Z,30.92
2017-08-25T08:12:13.605Z,31.02
2017-08-25T08:13:13.303Z,31.21
2017-08-25T08:14:13.623Z,31.15
2017-08-25T08:15:15.324Z,31.18
2017-08-25T08:16:13.945Z,31.05
2017-08-25T08:17:13.646Z,31.12
2017-08-25T08:18:13.658Z,31.18
2017-08-25T08:19:13.965Z,31.05
2017-08-25T08:20:15.131Z,31.03
2017-08-25T08:21:20.489Z,30.92
2017-08-25T08:22:13.687Z,30.78
2017-08-25T08:23:13.999Z,30.72
2017-08-25T08:24:13.699Z,30.61
2017-08-25T08:25:14.730Z,30.75
2017-08-25T08:26:14.036Z,30.85
2017-08-25T08:27:13.414Z,31.14
2017-08-25T08:28:13.729Z,31.42
2017-08-25T08:29:13.740Z,31.49
2017-08-25T08:30:15.010Z,31.61
2017-08-25T08:31:13.767Z,31.62
2017-08-25T08:32:14.077Z,31.56
2017-08-25T08:33:14.080Z,31.69
2017-08-25T08:34:13.790Z,31.7
2017-08-25T08:35:15.127Z,31.46
2017-08-25T08:36:13.803Z,31.43
2017-08-25T08:37:14.124Z,31.31
2017-08-25T08:38:13.509Z,30.9
2017-08-25T08:39:13.829Z,30.46
2017-08-25T08:40:15.535Z,30.02
2017-08-25T08:41:14.155Z,29.53
2017-08-25T08:42:13.848Z,29.27
2017-08-25T08:43:14.175Z,28.96
2017-08-25T08:44:13.879Z,28.69
2017-08-25T08:45:15.759Z,28.54
2017-08-25T08:46:14.190Z,28.33
2017-08-25T08:47:14.197Z,28.17
2017-08-25T08:48:14.206Z,28.01
2017-08-25T08:49:13.905Z,27.7
2017-08-25T08:50:15.679Z,27.55
2017-08-25T08:51:13.626Z,27.51
2017-08-25T08:52:13.934Z,27.49
2017-08-25T08:53:13.631Z,27.37
2017-08-25T08:54:13.639Z,27.35
2017-08-25T08:55:15.524Z,27.32
2017-08-25T08:56:13.651Z,27.27
2017-08-25T08:57:14.283Z,27.35
2017-08-25T08:58:13.968Z,27.33
2017-08-25T08:59:13.976Z,27.4
2017-08-25T09:00:15.129Z,27.44
2017-08-25T09:01:14.306Z,27.4
2017-08-25T09:02:13.691Z,27.44
2017-08-25T09:03:14.334Z,27.37
2017-08-25T09:04:14.321Z,27.33
2017-08-25T09:05:15.714Z,27.22
2017-08-25T09:06:14.329Z,27.22
2017-08-25T09:07:14.336Z,27.26
2017-08-25T09:08:14.036Z,27.33
2017-08-25T09:09:14.361Z,27.37
2017-08-25T09:10:16.023Z,27.42
2017-08-25T09:11:14.373Z,27.44
2017-08-25T09:12:14.381Z,27.52
2017-08-25T09:13:14.069Z,27.63
2017-08-25T09:14:13.784Z,27.7
2017-08-25T09:15:15.739Z,27.55
2017-08-25T09:16:14.092Z,27.59
2017-08-25T09:17:14.091Z,27.59
2017-08-25T09:18:14.413Z,27.49
2017-08-25T09:19:14.415Z,27.64
2017-08-25T09:20:15.434Z,27.65
2017-08-25T09:21:14.426Z,27.7
2017-08-25T09:22:18.736Z,27.71
2017-08-25T09:23:14.129Z,27.82
2017-08-25T09:24:14.439Z,27.85
2017-08-25T09:25:15.446Z,27.89
2017-08-25T09:26:14.148Z,28.02
2017-08-25T09:27:14.150Z,27.98
2017-08-25T09:28:14.154Z,28.07
2017-08-25T09:29:14.164Z,28.08
2017-08-25T09:30:15.666Z,28.15
2017-08-25T09:31:14.480Z,28.17
2017-08-25T09:32:14.189Z,28.2
2017-08-25T09:33:14.188Z,28.19
2017-08-25T09:34:14.190Z,28.22
2017-08-25T09:35:15.564Z,28.22
2017-08-25T09:36:14.209Z,28.17
2017-08-25T09:37:14.524Z,28.23
2017-08-25T09:38:14.526Z,28.25
2017-08-25T09:39:14.228Z,28.33
2017-08-25T09:40:15.542Z,28.33
2017-08-25T09:41:14.235Z,28.29
2017-08-25T09:42:14.249Z,28.3
2017-08-25T09:43:14.555Z,28.23
2017-08-25T09:44:14.557Z,28.33
2017-08-25T09:45:15.064Z,28.26
2017-08-25T09:46:13.953Z,28.41
2017-08-25T09:47:14.583Z,28.51
2017-08-25T09:48:13.973Z,28.69
2017-08-25T09:49:13.975Z,28.72
2017-08-25T09:50:15.351Z,28.78
2017-08-25T09:51:14.292Z,28.88
2017-08-25T09:52:15.064Z,28.79
2017-08-25T09:53:14.321Z,28.72
2017-08-25T09:54:14.633Z,28.75
2017-08-25T09:55:15.560Z,28.67
2017-08-25T09:56:14.319Z,28.67
2017-08-25T09:57:14.636Z,28.69
2017-08-25T09:58:14.652Z,28.72
2017-08-25T09:59:14.343Z,28.7
2017-08-25T10:00:15.217Z,28.7
2017-08-25T10:01:14.667Z,28.74
2017-08-25T10:02:14.671Z,28.79
2017-08-25T10:03:14.676Z,28.85
2017-08-25T10:04:14.679Z,28.98
2017-08-25T10:05:15.666Z,29.02
2017-08-25T10:06:14.395Z,29.13
2017-08-25T10:07:14.392Z,29.13
2017-08-25T10:08:14.400Z,29.13
2017-08-25T10:09:14.728Z,29.24
2017-08-25T10:10:15.610Z,29.27
2017-08-25T10:11:14.436Z,29.16
2017-08-25T10:12:14.735Z,29.16
2017-08-25T10:13:14.740Z,29.22
2017-08-25T10:14:14.754Z,29.05
2017-08-25T10:15:15.662Z,29.13
2017-08-25T10:16:14.762Z,29.1
2017-08-25T10:17:14.759Z,28.97
2017-08-25T10:18:14.467Z,29.01
2017-08-25T10:19:14.772Z,29.04
2017-08-25T10:20:15.527Z,28.94
2017-08-25T10:21:14.794Z,28.97
2017-08-25T10:22:14.496Z,28.96
2017-08-25T10:23:14.495Z,28.86
2017-08-25T10:24:14.802Z,28.89
2017-08-25T10:25:15.563Z,28.78
2017-08-25T10:26:14.517Z,28.7
2017-08-25T10:27:14.518Z,28.57
2017-08-25T10:28:14.524Z,28.48
2017-08-25T10:29:14.224Z,28.54
2017-08-25T10:30:15.993Z,28.45
2017-08-25T10:31:14.540Z,28.45
2017-08-25T10:32:14.857Z,28.48
2017-08-25T10:33:14.243Z,28.63
2017-08-25T10:34:14.555Z,28.82
2017-08-25T10:35:15.749Z,28.91
2017-08-25T10:36:14.576Z,29.04
2017-08-25T10:37:14.572Z,29.1
2017-08-25T10:38:14.630Z,29.17
2017-08-25T10:39:14.901Z,29.35
2017-08-25T10:40:15.774Z,29.39
2017-08-25T10:41:14.923Z,29.44
2017-08-25T10:42:14.922Z,29.5
2017-08-25T10:43:14.607Z,29.53
2017-08-25T10:44:14.927Z,29.63
2017-08-25T10:45:15.715Z,29.73
2017-08-25T10:46:14.633Z,29.76
2017-08-25T10:47:14.336Z,29.72
2017-08-25T10:48:14.643Z,29.57
2017-08-25T10:49:14.958Z,29.47
2017-08-25T10:50:16.090Z,29.54
2017-08-25T10:51:14.970Z,29.61
2017-08-25T10:52:14.670Z,29.65
2017-08-25T10:53:15.473Z,29.54
2017-08-25T10:54:14.986Z,29.5
2017-08-25T10:55:15.447Z,29.34
2017-08-25T10:56:14.383Z,29.22
2017-08-25T10:57:14.708Z,29.23
2017-08-25T10:58:14.709Z,29.19
2017-08-25T10:59:15.025Z,29.14
2017-08-25T11:00:15.824Z,29.07
2017-08-25T11:01:15.000Z,29.07
2017-08-25T11:02:14.728Z,29.02
2017-08-25T11:03:15.054Z,29.02
2017-08-25T11:04:15.057Z,29.01
2017-08-25T11:05:15.888Z,29.23
2017-08-25T11:06:15.066Z,29.39
2017-08-25T11:07:14.456Z,29.36
2017-08-25T11:08:15.077Z,29.45
2017-08-25T11:09:15.082Z,29.61
2017-08-25T11:10:16.367Z,29.68
2017-08-25T11:11:14.790Z,29.73
2017-08-25T11:12:14.792Z,29.76
2017-08-25T11:13:15.110Z,29.86
2017-08-25T11:14:15.119Z,29.95
2017-08-25T11:15:15.907Z,29.97
2017-08-25T11:16:15.127Z,29.84
2017-08-25T11:17:14.518Z,29.82
2017-08-25T11:18:14.523Z,29.82
2017-08-25T11:19:14.838Z,29.88
2017-08-25T11:20:16.591Z,29.98
2017-08-25T11:21:15.173Z,30.03
2017-08-25T11:22:15.177Z,30
2017-08-25T11:23:16.654Z,30.09
2017-08-25T11:24:14.873Z,30.12
2017-08-25T11:25:16.767Z,30.15
2017-08-25T11:26:15.198Z,30.16
2017-08-25T11:27:15.196Z,30.23
2017-08-25T11:28:14.895Z,30.23
2017-08-25T11:29:15.210Z,30.28
2017-08-25T11:30:16.566Z,30.3
2017-08-25T11:31:15.231Z,30.27
2017-08-25T11:32:15.234Z,30.4
2017-08-25T11:33:15.239Z,30.43
2017-08-25T11:34:15.251Z,30.4
2017-08-25T11:35:16.197Z,30.34
2017-08-25T11:36:14.947Z,30.4
2017-08-25T11:37:14.963Z,30.39
2017-08-25T11:38:14.970Z,30.31
2017-08-25T11:39:15.287Z,30.32
2017-08-25T11:40:16.738Z,30.31
2017-08-25T11:41:14.982Z,30.39
2017-08-25T11:42:14.988Z,30.46
2017-08-25T11:43:14.995Z,30.46
2017-08-25T11:44:14.691Z,30.47
2017-08-25T11:45:16.162Z,30.37
2017-08-25T11:46:15.321Z,30.32
2017-08-25T11:47:15.031Z,30.13
2017-08-25T11:48:15.039Z,30.05
2017-08-25T11:49:15.348Z,30.15
2017-08-25T11:50:16.174Z,30.27
2017-08-25T11:51:15.353Z,30.25
2017-08-25T11:52:14.744Z,30.27
2017-08-25T11:53:16.488Z,30.37
2017-08-25T11:54:14.751Z,30.55
2017-08-25T11:55:16.049Z,30.72
2017-08-25T11:56:15.076Z,30.63
2017-08-25T11:57:15.391Z,30.62
2017-08-25T11:58:15.405Z,30.63
2017-08-25T11:59:15.101Z,30.62
2017-08-25T12:00:16.154Z,30.47
2017-08-25T12:01:15.422Z,30.47
2017-08-25T12:02:15.425Z,30.44
2017-08-25T12:03:15.121Z,30.43
2017-08-25T12:04:15.138Z,30.44
2017-08-25T12:05:16.461Z,30.47
2017-08-25T12:06:15.456Z,30.46
2017-08-25T12:07:15.462Z,30.44
2017-08-25T12:08:15.467Z,30.39
2017-08-25T12:09:15.163Z,30.34
2017-08-25T12:10:16.908Z,30.31
2017-08-25T12:11:15.197Z,30.31
2017-08-25T12:12:14.881Z,30.34
2017-08-25T12:13:15.496Z,30.27
2017-08-25T12:14:15.504Z,30.43
2017-08-25T12:15:16.367Z,30.47
2017-08-25T12:16:15.525Z,30.4
2017-08-25T12:17:15.224Z,30.48
2017-08-25T12:18:15.225Z,30.4
2017-08-25T12:19:15.533Z,30.39
2017-08-25T12:20:16.580Z,30.43
2017-08-25T12:21:15.242Z,30.46
2017-08-25T12:22:15.555Z,30.5
2017-08-25T12:23:14.944Z,30.54
2017-08-25T12:24:15.151Z,30.39
2017-08-25T12:25:16.598Z,30.35
2017-08-25T12:26:15.591Z,30.35
2017-08-25T12:27:15.280Z,30.15
2017-08-25T12:28:15.287Z,30.16
2017-08-25T12:29:15.620Z,30.03
2017-08-25T12:30:16.089Z,30.02
2017-08-25T12:31:15.305Z,30.16
2017-08-25T12:32:15.629Z,30.24
2017-08-25T12:33:15.632Z,30.4
2017-08-25T12:34:15.636Z,30.46
2017-08-25T12:35:16.519Z,30.47
2017-08-25T12:36:15.336Z,30.55
2017-08-25T12:37:15.672Z,30.37
2017-08-25T12:38:15.659Z,30.48
2017-08-25T12:39:15.059Z,30.51
2017-08-25T12:40:16.782Z,30.47
2017-08-25T12:41:15.371Z,30.51
2017-08-25T12:42:15.686Z,30.35
2017-08-25T12:43:15.387Z,30.35
2017-08-25T12:44:15.086Z,30.43
2017-08-25T12:45:16.816Z,30.5
2017-08-25T12:46:15.403Z,30.55
2017-08-25T12:47:15.717Z,30.62
2017-08-25T12:48:15.417Z,30.61
2017-08-25T12:49:15.434Z,30.59
2017-08-25T12:50:16.708Z,30.61
2017-08-25T12:51:15.445Z,30.65
2017-08-25T12:52:15.763Z,30.54
2017-08-25T12:53:15.150Z,30.51
2017-08-25T12:54:15.915Z,30.47
2017-08-25T12:55:17.020Z,30.53